sensor_id;sensor_type;location;lat;lon;timestamp;pressure;altitude;pressure_sealevel;temperature;humidity
57668;BME280;43499;52.366;12.912;2024-03-02T00:00:43;100241.59;;;9.41;85.78
57668;BME280;43499;52.366;12.912;2024-03-02T00:01:44;100217.03;;;9.29;85.98
57668;BME280;43499;52.366;12.912;2024-03-02T00:02:46;100226.28;;;9.36;85.89
57668;BME280;43499;52.366;12.912;2024-03-02T00:03:47;100240.34;;;9.48;85.70
57668;BME280;43499;52.366;12.912;2024-03-02T00:04:48;100238.88;;;9.52;85.90
57668;BME280;43499;52.366;12.912;2024-03-02T00:05:50;100188.63;;;9.23;85.25
57668;BME280;43499;52.366;12.912;2024-03-02T00:06:52;100221.16;;;9.37;85.35
57668;BME280;43499;52.366;12.912;2024-03-02T00:07:57;100218.53;;;9.37;85.22
57668;BME280;43499;52.366;12.912;2024-03-02T00:08:58;100234.16;;;9.36;85.18
57668;BME280;43499;52.366;12.912;2024-03-02T00:10:00;100234.25;;;9.37;85.94
57668;BME280;43499;52.366;12.912;2024-03-02T00:11:01;100233.03;;;9.44;85.72
57668;BME280;43499;52.366;12.912;2024-03-02T00:12:06;100227.09;;;9.47;85.94
57668;BME280;43499;52.366;12.912;2024-03-02T00:13:07;100233.63;;;9.52;85.38
57668;BME280;43499;52.366;12.912;2024-03-02T00:14:09;100221.84;;;9.47;85.34
57668;BME280;43499;52.366;12.912;2024-03-02T00:16:31;100234.44;;;9.51;85.29
57668;BME280;43499;52.366;12.912;2024-03-02T00:17:32;100229.03;;;9.49;85.11
57668;BME280;43499;52.366;12.912;2024-03-02T00:18:35;100220.81;;;9.45;85.54
57668;BME280;43499;52.366;12.912;2024-03-02T00:19:38;100230.56;;;9.57;85.74
57668;BME280;43499;52.366;12.912;2024-03-02T00:20:40;100218.78;;;9.52;85.38
57668;BME280;43499;52.366;12.912;2024-03-02T00:21:41;100234.22;;;9.60;85.08
57668;BME280;43499;52.366;12.912;2024-03-02T00:22:42;100231.59;;;9.60;85.13
57668;BME280;43499;52.366;12.912;2024-03-02T00:23:44;100230.78;;;9.61;84.89
57668;BME280;43499;52.366;12.912;2024-03-02T00:24:45;100207.03;;;9.47;85.19
57668;BME280;43499;52.366;12.912;2024-03-02T00:25:54;100209.66;;;9.47;85.37
57668;BME280;43499;52.366;12.912;2024-03-02T00:26:55;100232.50;;;9.60;84.98
57668;BME280;43499;52.366;12.912;2024-03-02T00:27:56;100212.06;;;9.56;85.43
57668;BME280;43499;52.366;12.912;2024-03-02T00:28:58;100210.47;;;9.46;84.97
57668;BME280;43499;52.366;12.912;2024-03-02T00:30:08;100214.66;;;9.44;85.05
57668;BME280;43499;52.366;12.912;2024-03-02T00:31:26;100227.69;;;9.43;85.23
57668;BME280;43499;52.366;12.912;2024-03-02T00:32:28;100232.44;;;9.36;85.61
57668;BME280;43499;52.366;12.912;2024-03-02T00:33:32;100236.19;;;9.28;86.28
57668;BME280;43499;52.366;12.912;2024-03-02T00:34:33;100227.38;;;9.27;86.54
57668;BME280;43499;52.366;12.912;2024-03-02T00:35:34;100216.41;;;9.21;86.42
57668;BME280;43499;52.366;12.912;2024-03-02T00:36:35;100223.59;;;9.24;86.50
57668;BME280;43499;52.366;12.912;2024-03-02T00:37:36;100224.72;;;9.16;86.77
57668;BME280;43499;52.366;12.912;2024-03-02T00:38:48;100211.69;;;9.05;86.98
57668;BME280;43499;52.366;12.912;2024-03-02T00:39:50;100222.53;;;9.10;86.74
57668;BME280;43499;52.366;12.912;2024-03-02T00:40:51;100201.38;;;8.97;86.63
57668;BME280;43499;52.366;12.912;2024-03-02T00:41:52;100216.00;;;9.05;87.03
57668;BME280;43499;52.366;12.912;2024-03-02T00:42:53;100215.16;;;8.94;87.24
57668;BME280;43499;52.366;12.912;2024-03-02T00:44:00;100193.34;;;8.83;87.71
57668;BME280;43499;52.366;12.912;2024-03-02T00:45:07;100219.06;;;8.99;87.71
57668;BME280;43499;52.366;12.912;2024-03-02T00:46:11;100222.34;;;8.97;87.84
57668;BME280;43499;52.366;12.912;2024-03-02T00:47:12;100206.72;;;8.98;88.04
57668;BME280;43499;52.366;12.912;2024-03-02T00:48:15;100215.91;;;9.15;87.98
57668;BME280;43499;52.366;12.912;2024-03-02T00:49:21;100223.13;;;9.18;87.53
57668;BME280;43499;52.366;12.912;2024-03-02T00:50:22;100222.56;;;9.22;87.45
57668;BME280;43499;52.366;12.912;2024-03-02T00:51:24;100232.06;;;9.32;87.60
57668;BME280;43499;52.366;12.912;2024-03-02T00:52:26;100213.00;;;9.22;87.11
57668;BME280;43499;52.366;12.912;2024-03-02T00:53:27;100220.81;;;9.10;87.27
57668;BME280;43499;52.366;12.912;2024-03-02T00:54:29;100222.78;;;9.13;87.35
57668;BME280;43499;52.366;12.912;2024-03-02T00:55:30;100215.56;;;9.10;87.30
57668;BME280;43499;52.366;12.912;2024-03-02T00:56:32;100231.00;;;9.18;87.47
57668;BME280;43499;52.366;12.912;2024-03-02T00:57:34;100225.88;;;9.19;87.30
57668;BME280;43499;52.366;12.912;2024-03-02T00:58:39;100211.88;;;9.19;87.02
57668;BME280;43499;52.366;12.912;2024-03-02T00:59:40;100221.78;;;9.23;87.03
57668;BME280;43499;52.366;12.912;2024-03-02T01:00:41;100216.06;;;9.17;87.07
57668;BME280;43499;52.366;12.912;2024-03-02T01:01:42;100223.31;;;9.09;87.36
57668;BME280;43499;52.366;12.912;2024-03-02T01:02:44;100199.97;;;8.90;87.78
57668;BME280;43499;52.366;12.912;2024-03-02T01:03:47;100188.53;;;8.77;87.92
57668;BME280;43499;52.366;12.912;2024-03-02T01:04:48;100220.06;;;8.89;88.14
57668;BME280;43499;52.366;12.912;2024-03-02T01:05:49;100209.75;;;8.80;88.54
57668;BME280;43499;52.366;12.912;2024-03-02T01:06:50;100206.16;;;8.90;88.77
57668;BME280;43499;52.366;12.912;2024-03-02T01:07:51;100204.19;;;8.88;89.04
57668;BME280;43499;52.366;12.912;2024-03-02T01:08:52;100216.38;;;8.87;89.43
57668;BME280;43499;52.366;12.912;2024-03-02T01:09:53;100201.22;;;8.61;90.03
57668;BME280;43499;52.366;12.912;2024-03-02T01:10:54;100215.34;;;8.85;90.18
57668;BME280;43499;52.366;12.912;2024-03-02T01:11:55;100208.00;;;8.81;90.74
57668;BME280;43499;52.366;12.912;2024-03-02T01:12:56;100215.69;;;8.90;90.00
57668;BME280;43499;52.366;12.912;2024-03-02T01:13:57;100195.53;;;8.67;90.06
57668;BME280;43499;52.366;12.912;2024-03-02T01:14:58;100214.38;;;8.95;90.61
57668;BME280;43499;52.366;12.912;2024-03-02T01:15:59;100208.53;;;8.87;90.34
57668;BME280;43499;52.366;12.912;2024-03-02T01:17:01;100199.16;;;8.79;90.25
57668;BME280;43499;52.366;12.912;2024-03-02T01:18:05;100203.03;;;8.84;90.47
57668;BME280;43499;52.366;12.912;2024-03-02T01:19:06;100210.34;;;8.88;90.52
57668;BME280;43499;52.366;12.912;2024-03-02T01:20:08;100206.63;;;8.97;90.69
57668;BME280;43499;52.366;12.912;2024-03-02T01:21:10;100189.25;;;8.87;90.75
57668;BME280;43499;52.366;12.912;2024-03-02T01:22:11;100193.94;;;8.91;90.73
57668;BME280;43499;52.366;12.912;2024-03-02T01:23:12;100171.56;;;8.84;90.44
57668;BME280;43499;52.366;12.912;2024-03-02T01:24:13;100194.66;;;9.00;90.86
57668;BME280;43499;52.366;12.912;2024-03-02T01:25:14;100188.38;;;8.98;90.59
57668;BME280;43499;52.366;12.912;2024-03-02T01:26:15;100173.34;;;8.95;90.08
57668;BME280;43499;52.366;12.912;2024-03-02T01:27:16;100192.03;;;9.00;90.28
57668;BME280;43499;52.366;12.912;2024-03-02T01:28:18;100197.56;;;9.15;89.95
57668;BME280;43499;52.366;12.912;2024-03-02T01:29:19;100196.66;;;9.15;89.88
57668;BME280;43499;52.366;12.912;2024-03-02T01:30:21;100181.13;;;9.06;89.81
57668;BME280;43499;52.366;12.912;2024-03-02T01:31:22;100189.25;;;9.21;89.71
57668;BME280;43499;52.366;12.912;2024-03-02T01:32:23;100191.00;;;9.20;89.46
57668;BME280;43499;52.366;12.912;2024-03-02T01:33:24;100185.47;;;9.05;89.31
57668;BME280;43499;52.366;12.912;2024-03-02T01:34:25;100195.63;;;9.13;89.40
57668;BME280;43499;52.366;12.912;2024-03-02T01:35:26;100180.22;;;9.05;89.55
57668;BME280;43499;52.366;12.912;2024-03-02T01:36:27;100175.78;;;9.04;89.46
57668;BME280;43499;52.366;12.912;2024-03-02T01:37:28;100187.38;;;8.96;89.83
57668;BME280;43499;52.366;12.912;2024-03-02T01:38:30;100172.19;;;8.92;90.17
57668;BME280;43499;52.366;12.912;2024-03-02T01:39:32;100162.75;;;8.94;90.13
57668;BME280;43499;52.366;12.912;2024-03-02T01:40:34;100181.38;;;9.09;90.37
57668;BME280;43499;52.366;12.912;2024-03-02T01:41:35;100166.06;;;9.03;90.02
57668;BME280;43499;52.366;12.912;2024-03-02T01:42:37;100157.75;;;8.97;89.88
57668;BME280;43499;52.366;12.912;2024-03-02T01:43:38;100170.53;;;9.04;89.83
57668;BME280;43499;52.366;12.912;2024-03-02T01:44:40;100175.22;;;9.08;89.66
57668;BME280;43499;52.366;12.912;2024-03-02T01:45:41;100165.03;;;9.01;89.86
57668;BME280;43499;52.366;12.912;2024-03-02T01:46:42;100170.63;;;9.06;90.30
57668;BME280;43499;52.366;12.912;2024-03-02T01:47:43;100178.81;;;8.99;90.10
57668;BME280;43499;52.366;12.912;2024-03-02T01:48:44;100181.56;;;9.00;90.94
57668;BME280;43499;52.366;12.912;2024-03-02T01:49:45;100182.66;;;8.92;90.56
57668;BME280;43499;52.366;12.912;2024-03-02T01:50:46;100172.19;;;8.92;90.70
57668;BME280;43499;52.366;12.912;2024-03-02T01:51:47;100167.19;;;8.95;90.90
57668;BME280;43499;52.366;12.912;2024-03-02T01:52:48;100168.66;;;8.91;91.09
57668;BME280;43499;52.366;12.912;2024-03-02T01:53:49;100178.41;;;9.04;90.64
57668;BME280;43499;52.366;12.912;2024-03-02T01:54:50;100153.50;;;8.99;90.99
57668;BME280;43499;52.366;12.912;2024-03-02T01:55:51;100165.41;;;9.06;90.60
57668;BME280;43499;52.366;12.912;2024-03-02T01:56:52;100154.19;;;8.97;90.70
57668;BME280;43499;52.366;12.912;2024-03-02T01:57:53;100129.47;;;8.93;90.71
57668;BME280;43499;52.366;12.912;2024-03-02T01:58:54;100154.47;;;9.11;90.80
57668;BME280;43499;52.366;12.912;2024-03-02T01:59:56;100153.94;;;9.16;90.02
57668;BME280;43499;52.366;12.912;2024-03-02T02:00:58;100159.06;;;9.14;89.77
57668;BME280;43499;52.366;12.912;2024-03-02T02:01:59;100138.97;;;9.03;90.23
57668;BME280;43499;52.366;12.912;2024-03-02T02:03:00;100142.22;;;8.88;90.12
57668;BME280;43499;52.366;12.912;2024-03-02T02:04:01;100133.41;;;8.88;90.62
57668;BME280;43499;52.366;12.912;2024-03-02T02:05:02;100156.97;;;9.10;90.09
57668;BME280;43499;52.366;12.912;2024-03-02T02:06:04;100153.31;;;9.08;90.16
57668;BME280;43499;52.366;12.912;2024-03-02T02:07:05;100136.69;;;9.07;90.11
57668;BME280;43499;52.366;12.912;2024-03-02T02:08:07;100134.78;;;9.17;90.08
57668;BME280;43499;52.366;12.912;2024-03-02T02:09:08;100150.63;;;9.18;89.88
57668;BME280;43499;52.366;12.912;2024-03-02T02:10:10;100146.97;;;9.16;89.61
57668;BME280;43499;52.366;12.912;2024-03-02T02:11:14;100126.66;;;9.02;89.67
57668;BME280;43499;52.366;12.912;2024-03-02T02:12:16;100162.69;;;9.16;89.78
57668;BME280;43499;52.366;12.912;2024-03-02T02:13:17;100153.25;;;9.18;89.59
57668;BME280;43499;52.366;12.912;2024-03-02T02:14:18;100133.28;;;9.08;89.36
57668;BME280;43499;52.366;12.912;2024-03-02T02:15:23;100137.13;;;9.02;89.54
57668;BME280;43499;52.366;12.912;2024-03-02T02:16:24;100153.13;;;9.17;89.79
57668;BME280;43499;52.366;12.912;2024-03-02T02:17:25;100145.09;;;9.03;90.07
57668;BME280;43499;52.366;12.912;2024-03-02T02:18:26;100142.72;;;9.06;90.04
57668;BME280;43499;52.366;12.912;2024-03-02T02:19:28;100116.25;;;8.91;90.22
57668;BME280;43499;52.366;12.912;2024-03-02T02:20:29;100149.38;;;9.13;90.05
57668;BME280;43499;52.366;12.912;2024-03-02T02:21:30;100148.56;;;9.14;90.01
57668;BME280;43499;52.366;12.912;2024-03-02T02:22:31;100146.41;;;9.08;90.39
57668;BME280;43499;52.366;12.912;2024-03-02T02:23:32;100150.34;;;9.03;90.41
57668;BME280;43499;52.366;12.912;2024-03-02T02:24:33;100132.69;;;9.01;90.71
57668;BME280;43499;52.366;12.912;2024-03-02T02:25:35;100141.72;;;9.16;90.72
57668;BME280;43499;52.366;12.912;2024-03-02T02:26:36;100141.59;;;9.15;90.85
57668;BME280;43499;52.366;12.912;2024-03-02T02:27:37;100141.16;;;9.20;90.45
57668;BME280;43499;52.366;12.912;2024-03-02T02:28:38;100144.03;;;9.23;90.24
57668;BME280;43499;52.366;12.912;2024-03-02T02:29:39;100138.00;;;9.24;89.93
57668;BME280;43499;52.366;12.912;2024-03-02T02:30:40;100141.63;;;9.26;90.12
57668;BME280;43499;52.366;12.912;2024-03-02T02:31:41;100146.50;;;9.22;90.02
57668;BME280;43499;52.366;12.912;2024-03-02T02:32:43;100144.03;;;9.23;89.70
57668;BME280;43499;52.366;12.912;2024-03-02T02:33:44;100147.56;;;9.24;89.86
57668;BME280;43499;52.366;12.912;2024-03-02T02:34:45;100140.38;;;9.21;90.12
57668;BME280;43499;52.366;12.912;2024-03-02T02:35:46;100139.34;;;9.19;89.98
57668;BME280;43499;52.366;12.912;2024-03-02T02:36:47;100136.72;;;9.19;89.83
57668;BME280;43499;52.366;12.912;2024-03-02T02:37:49;100148.59;;;9.26;90.05
57668;BME280;43499;52.366;12.912;2024-03-02T02:38:50;100148.47;;;9.24;89.76
57668;BME280;43499;52.366;12.912;2024-03-02T02:39:51;100115.72;;;9.07;nan
57668;BME280;43499;52.366;12.912;2024-03-02T02:40:52;100137.94;;;9.13;89.57
57668;BME280;43499;52.366;12.912;2024-03-02T02:41:53;100148.56;;;9.14;90.05
57668;BME280;43499;52.366;12.912;2024-03-02T02:42:54;100151.06;;;9.13;90.06
57668;BME280;43499;52.366;12.912;2024-03-02T02:43:56;100150.25;;;9.02;90.15
57668;BME280;43499;52.366;12.912;2024-03-02T02:44:57;100133.13;;;8.95;90.47
57668;BME280;43499;52.366;12.912;2024-03-02T02:45:58;100148.41;;;9.01;90.63
57668;BME280;43499;52.366;12.912;2024-03-02T02:46:59;100138.47;;;8.97;90.59
57668;BME280;43499;52.366;12.912;2024-03-02T02:48:00;100115.75;;;8.85;90.90
57668;BME280;43499;52.366;12.912;2024-03-02T02:49:03;100137.94;;;9.01;90.78
57668;BME280;43499;52.366;12.912;2024-03-02T02:50:06;100148.28;;;8.99;90.66
57668;BME280;43499;52.366;12.912;2024-03-02T02:51:07;100145.53;;;8.98;91.17
57668;BME280;43499;52.366;12.912;2024-03-02T02:52:08;100144.06;;;9.01;91.13
57668;BME280;43499;52.366;12.912;2024-03-02T02:53:09;100147.63;;;9.02;91.16
57668;BME280;43499;52.366;12.912;2024-03-02T02:54:10;100148.41;;;9.01;90.82
57668;BME280;43499;52.366;12.912;2024-03-02T02:55:13;100132.44;;;8.98;91.04
57668;BME280;43499;52.366;12.912;2024-03-02T02:56:14;100153.50;;;8.99;91.02
57668;BME280;43499;52.366;12.912;2024-03-02T02:57:15;100146.66;;;8.89;91.18
57668;BME280;43499;52.366;12.912;2024-03-02T02:58:16;100143.78;;;8.86;91.30
57668;BME280;43499;52.366;12.912;2024-03-02T02:59:17;100137.66;;;8.86;91.47
57668;BME280;43499;52.366;12.912;2024-03-02T03:00:18;100151.31;;;8.93;91.09
57668;BME280;43499;52.366;12.912;2024-03-02T03:01:20;100142.47;;;8.91;91.58
57668;BME280;43499;52.366;12.912;2024-03-02T03:02:21;100133.47;;;9.00;91.20
57668;BME280;43499;52.366;12.912;2024-03-02T03:03:22;100137.25;;;9.03;91.26
57668;BME280;43499;52.366;12.912;2024-03-02T03:04:23;100134.00;;;8.95;90.81
57668;BME280;43499;52.366;12.912;2024-03-02T03:05:25;100151.50;;;9.07;91.16
57668;BME280;43499;52.366;12.912;2024-03-02T03:06:26;100144.22;;;9.03;90.90
57668;BME280;43499;52.366;12.912;2024-03-02T03:07:27;100159.84;;;9.13;91.07
57668;BME280;43499;52.366;12.912;2024-03-02T03:08:28;100152.09;;;9.15;90.82
57668;BME280;43499;52.366;12.912;2024-03-02T03:09:29;100146.31;;;9.19;90.46
57668;BME280;43499;52.366;12.912;2024-03-02T03:10:30;100135.31;;;9.01;90.40
57668;BME280;43499;52.366;12.912;2024-03-02T03:11:31;100141.44;;;9.01;90.60
57668;BME280;43499;52.366;12.912;2024-03-02T03:12:33;100157.66;;;9.07;90.65
57668;BME280;43499;52.366;12.912;2024-03-02T03:13:34;100141.06;;;8.85;91.18
57668;BME280;43499;52.366;12.912;2024-03-02T03:14:35;100146.84;;;8.80;91.77
57668;BME280;43499;52.366;12.912;2024-03-02T03:15:37;100159.25;;;8.83;91.70
57668;BME280;43499;52.366;12.912;2024-03-02T03:16:38;100148.41;;;8.78;92.02
57668;BME280;43499;52.366;12.912;2024-03-02T03:17:39;100150.88;;;8.87;91.83
57668;BME280;43499;52.366;12.912;2024-03-02T03:18:40;100134.88;;;8.84;91.41
57668;BME280;43499;52.366;12.912;2024-03-02T03:19:41;100166.69;;;8.89;91.50
57668;BME280;43499;52.366;12.912;2024-03-02T03:20:42;100146.41;;;8.86;91.78
57668;BME280;43499;52.366;12.912;2024-03-02T03:21:43;100174.13;;;8.94;91.62
57668;BME280;43499;52.366;12.912;2024-03-02T03:22:45;100166.63;;;8.99;91.67
57668;BME280;43499;52.366;12.912;2024-03-02T03:23:46;100157.53;;;9.06;91.33
57668;BME280;43499;52.366;12.912;2024-03-02T03:24:48;100163.69;;;9.06;91.04
57668;BME280;43499;52.366;12.912;2024-03-02T03:25:49;100147.84;;;9.05;91.36
57668;BME280;43499;52.366;12.912;2024-03-02T03:26:50;100137.50;;;9.06;91.44
57668;BME280;43499;52.366;12.912;2024-03-02T03:27:51;100154.81;;;9.16;91.06
57668;BME280;43499;52.366;12.912;2024-03-02T03:28:54;100160.91;;;9.27;90.91
57668;BME280;43499;52.366;12.912;2024-03-02T03:29:55;100149.47;;;9.15;90.59
57668;BME280;43499;52.366;12.912;2024-03-02T03:30:56;100169.06;;;9.08;91.12
57668;BME280;43499;52.366;12.912;2024-03-02T03:31:57;100138.38;;;8.95;91.25
57668;BME280;43499;52.366;12.912;2024-03-02T03:32:58;100148.78;;;9.05;91.30
57668;BME280;43499;52.366;12.912;2024-03-02T03:33:59;100158.91;;;9.13;91.13
57668;BME280;43499;52.366;12.912;2024-03-02T03:35:01;100154.53;;;9.23;91.06
57668;BME280;43499;52.366;12.912;2024-03-02T03:36:02;100142.06;;;9.21;91.25
57668;BME280;43499;52.366;12.912;2024-03-02T03:37:04;100145.63;;;9.21;90.96
57668;BME280;43499;52.366;12.912;2024-03-02T03:38:05;100164.78;;;9.32;90.64
57668;BME280;43499;52.366;12.912;2024-03-02T03:39:06;100149.03;;;9.32;90.74
57668;BME280;43499;52.366;12.912;2024-03-02T03:40:07;100139.22;;;9.18;90.52
57668;BME280;43499;52.366;12.912;2024-03-02T03:41:10;100162.06;;;9.31;90.66
57668;BME280;43499;52.366;12.912;2024-03-02T03:42:11;100138.91;;;9.25;90.83
57668;BME280;43499;52.366;12.912;2024-03-02T03:43:12;100150.88;;;9.33;90.99
57668;BME280;43499;52.366;12.912;2024-03-02T03:44:14;100153.41;;;9.32;90.66
57668;BME280;43499;52.366;12.912;2024-03-02T03:45:15;100142.66;;;9.17;90.62
57668;BME280;43499;52.366;12.912;2024-03-02T03:46:16;100162.81;;;9.18;91.28
57668;BME280;43499;52.366;12.912;2024-03-02T03:47:17;100137.16;;;9.14;91.19
57668;BME280;43499;52.366;12.912;2024-03-02T03:48:18;100163.03;;;9.09;91.22
57668;BME280;43499;52.366;12.912;2024-03-02T03:49:20;100164.75;;;9.20;91.97
57668;BME280;43499;52.366;12.912;2024-03-02T03:50:21;100153.94;;;9.16;91.01
57668;BME280;43499;52.366;12.912;2024-03-02T03:51:22;100165.72;;;9.33;91.23
57668;BME280;43499;52.366;12.912;2024-03-02T03:52:26;100163.63;;;9.29;91.26
57668;BME280;43499;52.366;12.912;2024-03-02T03:53:27;100148.78;;;9.17;91.09
57668;BME280;43499;52.366;12.912;2024-03-02T03:54:28;100161.94;;;9.29;91.40
57668;BME280;43499;52.366;12.912;2024-03-02T03:55:29;100163.19;;;9.34;91.25
57668;BME280;43499;52.366;12.912;2024-03-02T03:56:30;100147.25;;;9.31;91.20
57668;BME280;43499;52.366;12.912;2024-03-02T03:57:31;100144.63;;;9.31;90.96
57668;BME280;43499;52.366;12.912;2024-03-02T03:58:32;100140.97;;;9.29;90.84
57668;BME280;43499;52.366;12.912;2024-03-02T03:59:33;100158.66;;;9.44;90.50
57668;BME280;43499;52.366;12.912;2024-03-02T04:00:35;100163.34;;;9.48;90.55
57668;BME280;43499;52.366;12.912;2024-03-02T04:01:36;100161.28;;;9.44;90.51
57668;BME280;43499;52.366;12.912;2024-03-02T04:02:37;100147.00;;;9.40;90.18
57668;BME280;43499;52.366;12.912;2024-03-02T04:03:38;100163.69;;;9.52;90.31
57668;BME280;43499;52.366;12.912;2024-03-02T04:04:39;100160.97;;;9.63;90.14
57668;BME280;43499;52.366;12.912;2024-03-02T04:05:40;100162.69;;;9.62;90.14
57668;BME280;43499;52.366;12.912;2024-03-02T04:06:42;100151.16;;;9.48;89.89
57668;BME280;43499;52.366;12.912;2024-03-02T04:07:43;100142.13;;;9.45;89.70
57668;BME280;43499;52.366;12.912;2024-03-02T04:08:44;100156.16;;;9.57;89.88
57668;BME280;43499;52.366;12.912;2024-03-02T04:09:45;100155.84;;;9.64;90.29
57668;BME280;43499;52.366;12.912;2024-03-02T04:10:46;100164.97;;;9.69;89.94
57668;BME280;43499;52.366;12.912;2024-03-02T04:11:47;100149.91;;;9.67;89.94
57668;BME280;43499;52.366;12.912;2024-03-02T04:12:49;100166.22;;;9.63;89.80
57668;BME280;43499;52.366;12.912;2024-03-02T04:13:50;100166.34;;;9.64;89.56
57668;BME280;43499;52.366;12.912;2024-03-02T04:14:51;100158.78;;;9.45;89.90
57668;BME280;43499;52.366;12.912;2024-03-02T04:15:52;100166.31;;;9.40;90.29
57668;BME280;43499;52.366;12.912;2024-03-02T04:16:53;100155.13;;;8.97;91.86
57668;BME280;43499;52.366;12.912;2024-03-02T04:17:54;100166.84;;;9.24;91.75
57668;BME280;43499;52.366;12.912;2024-03-02T04:18:56;100157.34;;;9.26;91.62
57668;BME280;43499;52.366;12.912;2024-03-02T04:19:57;100140.56;;;9.13;92.10
57668;BME280;43499;52.366;12.912;2024-03-02T04:20:58;100172.03;;;9.13;92.44
57668;BME280;43499;52.366;12.912;2024-03-02T04:22:00;100180.34;;;9.07;92.91
57668;BME280;43499;52.366;12.912;2024-03-02T04:23:01;100159.72;;;9.11;92.52
57668;BME280;43499;52.366;12.912;2024-03-02T04:24:02;100176.38;;;9.12;92.75
57668;BME280;43499;52.366;12.912;2024-03-02T04:25:03;100181.19;;;9.18;92.81
57668;BME280;43499;52.366;12.912;2024-03-02T04:26:06;100164.97;;;9.11;92.55
57668;BME280;43499;52.366;12.912;2024-03-02T04:27:07;100181.34;;;9.31;92.68
57668;BME280;43499;52.366;12.912;2024-03-02T04:28:08;100182.44;;;9.23;91.97
57668;BME280;43499;52.366;12.912;2024-03-02T04:29:09;100165.19;;;9.15;92.54
57668;BME280;43499;52.366;12.912;2024-03-02T04:30:10;100164.31;;;9.14;92.54
57668;BME280;43499;52.366;12.912;2024-03-02T04:31:11;100160.28;;;9.07;92.93
57668;BME280;43499;52.366;12.912;2024-03-02T04:32:12;100165.81;;;9.00;92.77
57668;BME280;43499;52.366;12.912;2024-03-02T04:33:13;100195.34;;;9.32;92.76
57668;BME280;43499;52.366;12.912;2024-03-02T04:34:14;100188.38;;;9.32;92.25
57668;BME280;43499;52.366;12.912;2024-03-02T04:35:15;100186.94;;;9.36;92.35
57668;BME280;43499;52.366;12.912;2024-03-02T04:36:16;100193.78;;;9.34;92.06
57668;BME280;43499;52.366;12.912;2024-03-02T04:37:18;100192.75;;;9.44;91.85
57668;BME280;43499;52.366;12.912;2024-03-02T04:38:19;100185.47;;;9.39;91.96
57668;BME280;43499;52.366;12.912;2024-03-02T04:39:20;100200.75;;;9.45;91.77
57668;BME280;43499;52.366;12.912;2024-03-02T04:40:21;100194.03;;;9.37;91.53
57668;BME280;43499;52.366;12.912;2024-03-02T04:41:22;100195.88;;;9.50;91.80
57668;BME280;43499;52.366;12.912;2024-03-02T04:42:23;100183.28;;;9.34;91.65
57668;BME280;43499;52.366;12.912;2024-03-02T04:43:25;100198.88;;;9.32;91.26
57668;BME280;43499;52.366;12.912;2024-03-02T04:44:26;100204.38;;;9.35;91.95
57668;BME280;43499;52.366;12.912;2024-03-02T04:45:27;100207.00;;;9.35;92.37
57668;BME280;43499;52.366;12.912;2024-03-02T04:46:28;100203.91;;;9.29;92.24
57668;BME280;43499;52.366;12.912;2024-03-02T04:47:29;100193.09;;;9.36;92.26
57668;BME280;43499;52.366;12.912;2024-03-02T04:48:30;100204.38;;;9.35;91.98
57668;BME280;43499;52.366;12.912;2024-03-02T04:49:31;100191.94;;;9.33;91.85
57668;BME280;43499;52.366;12.912;2024-03-02T04:50:32;100204.94;;;9.31;92.29
57668;BME280;43499;52.366;12.912;2024-03-02T04:51:34;100203.94;;;9.41;92.04
57668;BME280;43499;52.366;12.912;2024-03-02T04:52:35;100188.78;;;9.37;92.06
57668;BME280;43499;52.366;12.912;2024-03-02T04:53:36;100191.34;;;9.25;92.10
57668;BME280;43499;52.366;12.912;2024-03-02T04:54:37;100210.75;;;9.27;92.74
57668;BME280;43499;52.366;12.912;2024-03-02T04:55:58;100211.69;;;9.39;92.17
57668;BME280;43499;52.366;12.912;2024-03-02T04:57:19;100196.22;;;9.08;92.70
57668;BME280;43499;52.366;12.912;2024-03-02T04:58:20;100200.75;;;9.11;92.96
57668;BME280;43499;52.366;12.912;2024-03-02T04:59:21;100199.66;;;9.19;93.03
57668;BME280;43499;52.366;12.912;2024-03-02T05:00:22;100216.34;;;9.32;93.00
57668;BME280;43499;52.366;12.912;2024-03-02T05:01:23;100214.44;;;9.41;92.74
57668;BME280;43499;52.366;12.912;2024-03-02T05:02:24;100202.78;;;9.37;92.63
57668;BME280;43499;52.366;12.912;2024-03-02T05:03:25;100213.59;;;9.30;92.32
57668;BME280;43499;52.366;12.912;2024-03-02T05:04:26;100211.94;;;9.08;93.40
57668;BME280;43499;52.366;12.912;2024-03-02T05:05:27;100190.81;;;9.07;93.07
57668;BME280;43499;52.366;12.912;2024-03-02T05:06:28;100201.47;;;9.20;93.30
57668;BME280;43499;52.366;12.912;2024-03-02T05:07:29;100206.63;;;9.31;93.27
57668;BME280;43499;52.366;12.912;2024-03-02T05:08:30;100188.38;;;9.32;92.94
57668;BME280;43499;52.366;12.912;2024-03-02T05:09:31;100219.81;;;9.43;92.55
57668;BME280;43499;52.366;12.912;2024-03-02T05:10:32;100211.38;;;9.47;92.65
57668;BME280;43499;52.366;12.912;2024-03-02T05:11:34;100206.13;;;9.47;92.48
57668;BME280;43499;52.366;12.912;2024-03-02T05:12:38;100196.41;;;9.34;92.19
57668;BME280;43499;52.366;12.912;2024-03-02T05:13:45;100209.97;;;9.40;92.57
57668;BME280;43499;52.366;12.912;2024-03-02T05:14:46;100210.19;;;9.31;93.29
57668;BME280;43499;52.366;12.912;2024-03-02T05:15:47;100215.06;;;9.26;93.17
57668;BME280;43499;52.366;12.912;2024-03-02T05:16:48;100179.28;;;9.05;93.58
57668;BME280;43499;52.366;12.912;2024-03-02T05:17:49;100206.47;;;9.17;93.78
57668;BME280;43499;52.366;12.912;2024-03-02T05:18:50;100187.50;;;9.09;94.03
57668;BME280;43499;52.366;12.912;2024-03-02T05:19:51;100199.91;;;9.34;93.75
57668;BME280;43499;52.366;12.912;2024-03-02T05:20:52;100212.72;;;9.41;93.53
57668;BME280;43499;52.366;12.912;2024-03-02T05:21:53;100178.31;;;9.15;93.67
57668;BME280;43499;52.366;12.912;2024-03-02T05:22:54;100215.22;;;9.40;93.46
57668;BME280;43499;52.366;12.912;2024-03-02T05:23:55;100193.88;;;9.35;93.60